Time;durP1;ratioP1;P1;durP2;ratioP2;P2;SDS_P1;SDS_P2;PMS_P1;PMS_P2;Temp;Humidity;BMP_temperature;BMP_pressure;BME280_temperature;BME280_humidity;BME280_pressure;Samples;Min_cycle;Max_cycle;Signal;HPM_P1;HPM_P2
2023/06/05 00:00:07;;;;;;;6.33;2.60;;;12.70;99.90;;;;;;5119231;28;20314;-78
2023/06/05 00:02:34;;;;;;;4.97;2.60;;;12.40;99.90;;;;;;5118292;28;20677;-79
2023/06/05 00:05:01;;;;;;;3.63;2.30;;;12.30;99.90;;;;;;5118341;28;20201;-79
2023/06/05 00:07:28;;;;;;;4.20;2.63;;;12.20;99.90;;;;;;5118134;28;20208;-80
2023/06/05 00:09:56;;;;;;;2.90;2.40;;;12.20;99.90;;;;;;5118668;28;20672;-78
2023/06/05 00:12:23;;;;;;;4.40;2.40;;;12.20;99.90;;;;;;5118227;28;20487;-79
2023/06/05 00:14:50;;;;;;;4.70;2.50;;;12.20;99.90;;;;;;5117762;28;20197;-77
2023/06/05 00:17:17;;;;;;;3.93;2.73;;;12.30;99.90;;;;;;5118501;28;20209;-79
2023/06/05 00:19:44;;;;;;;5.33;2.53;;;12.40;99.90;;;;;;5118489;28;20217;-77
2023/06/05 00:22:11;;;;;;;3.40;2.50;;;12.20;99.90;;;;;;5118314;28;20205;-78
2023/06/05 00:24:39;;;;;;;4.27;2.60;;;12.20;99.90;;;;;;5117813;28;20212;-77
2023/06/05 00:27:07;;;;;;;6.03;2.50;;;12.10;99.90;;;;;;5118027;28;20649;-76
2023/06/05 00:29:34;;;;;;;5.13;2.70;;;12.10;99.90;;;;;;5118128;28;20223;-77
2023/06/05 00:32:01;;;;;;;4.57;2.10;;;12.00;99.90;;;;;;5118491;28;20243;-78
2023/06/05 00:34:27;;;;;;;5.30;2.33;;;12.10;99.90;;;;;;5117716;28;20220;-77
2023/06/05 00:36:54;;;;;;;6.70;2.63;;;12.10;99.90;;;;;;5118470;28;20207;-76
2023/06/05 00:39:21;;;;;;;7.23;2.30;;;12.20;99.90;;;;;;5118051;28;20204;-77
2023/06/05 00:41:48;;;;;;;4.20;2.50;;;12.10;99.90;;;;;;5117752;28;20208;-76
2023/06/05 00:44:17;;;;;;;3.60;2.40;;;12.10;99.90;;;;;;5113773;28;20244;-75
2023/06/05 00:46:45;;;;;;;3.97;2.53;;;12.10;99.90;;;;;;5116484;28;20559;-78
2023/06/05 00:49:12;;;;;;;6.13;2.77;;;12.10;99.90;;;;;;5116710;28;20197;-77
2023/06/05 00:51:42;;;;;;;4.13;2.70;;;12.10;99.90;;;;;;5116470;28;20203;-79
2023/06/05 00:54:09;;;;;;;2.80;2.33;;;12.00;99.90;;;;;;5116803;28;20598;-78
2023/06/05 00:56:36;;;;;;;6.07;2.63;;;11.80;99.90;;;;;;5117023;28;20216;-79
2023/06/05 00:59:04;;;;;;;3.90;2.50;;;11.80;99.90;;;;;;5116921;28;20221;-77
2023/06/05 01:01:33;;;;;;;3.53;2.60;;;11.80;99.90;;;;;;5117151;28;20681;-78
2023/06/05 01:03:59;;;;;;;4.60;2.67;;;11.70;99.90;;;;;;5116536;28;20217;-77
2023/06/05 01:06:27;;;;;;;7.33;2.63;;;11.50;99.90;;;;;;5116888;28;20650;-78
2023/06/05 01:08:56;;;;;;;3.77;2.23;;;11.60;99.90;;;;;;5117008;28;20197;-76
2023/06/05 01:11:29;;;;;;;4.27;2.50;;;11.50;99.90;;;;;;5116498;28;20247;-79
2023/06/05 01:14:03;;;;;;;4.10;2.73;;;11.50;99.90;;;;;;5116327;28;20228;-77
2023/06/05 01:16:32;;;;;;;4.70;2.50;;;11.40;99.90;;;;;;5117546;28;20193;-77
2023/06/05 01:19:02;;;;;;;7.13;2.70;;;11.40;99.90;;;;;;5117233;28;20622;-78
2023/06/05 01:21:30;;;;;;;3.33;2.53;;;11.30;99.90;;;;;;5117423;28;20744;-78
2023/06/05 01:23:58;;;;;;;4.70;2.60;;;11.30;99.90;;;;;;5117143;28;20250;-79
2023/06/05 01:26:34;;;;;;;5.73;2.43;;;11.30;99.90;;;;;;5116999;28;20207;-78
2023/06/05 01:29:06;;;;;;;3.97;2.50;;;11.40;99.90;;;;;;5116751;28;20200;-78
2023/06/05 01:31:36;;;;;;;5.53;2.60;;;11.40;99.90;;;;;;5116715;28;20218;-77
2023/06/05 01:34:07;;;;;;;3.40;2.20;;;11.40;99.90;;;;;;5116437;28;20625;-78
2023/06/05 01:36:37;;;;;;;3.97;2.77;;;11.40;99.90;;;;;;5112510;28;20208;-78
2023/06/05 01:39:06;;;;;;;5.80;2.97;;;11.40;99.90;;;;;;5116639;28;20232;-78
2023/06/05 01:41:34;;;;;;;4.37;2.73;;;11.30;99.90;;;;;;5116389;28;20217;-78
2023/06/05 01:44:02;;;;;;;3.93;2.53;;;11.20;99.90;;;;;;5115320;28;20232;-78
2023/06/05 01:46:29;;;;;;;4.70;2.80;;;11.20;99.90;;;;;;5114047;28;20567;-79
2023/06/05 01:48:56;;;;;;;5.87;2.60;;;11.30;99.90;;;;;;5116201;28;20197;-78
2023/06/05 01:51:23;;;;;;;4.33;3.00;;;11.30;99.90;;;;;;5115156;28;20217;-78
2023/06/05 01:53:50;;;;;;;4.30;2.70;;;11.30;99.90;;;;;;5115560;28;20711;-78
2023/06/05 01:56:19;;;;;;;4.40;2.70;;;11.20;99.90;;;;;;5115941;28;20634;-78
2023/06/05 01:58:47;;;;;;;4.80;2.80;;;11.20;99.90;;;;;;5115720;28;20208;-79
2023/06/05 02:01:15;;;;;;;4.90;2.77;;;11.20;99.90;;;;;;5115440;28;20245;-77
2023/06/05 02:03:47;;;;;;;4.87;2.90;;;11.10;99.90;;;;;;5115262;28;20593;-78
2023/06/05 02:06:15;;;;;;;6.17;3.03;;;11.10;99.90;;;;;;5115931;28;20296;-77
2023/06/05 02:08:42;;;;;;;4.60;2.70;;;11.10;99.90;;;;;;5115676;28;20209;-79
2023/06/05 02:11:10;;;;;;;4.57;3.40;;;11.00;99.90;;;;;;5115386;28;20571;-78
2023/06/05 02:13:39;;;;;;;4.90;3.43;;;11.00;99.90;;;;;;5115897;28;20324;-78
2023/06/05 02:16:10;;;;;;;4.03;2.40;;;11.10;99.90;;;;;;5116668;28;20227;-78
2023/06/05 02:18:37;;;;;;;4.63;2.87;;;11.00;99.90;;;;;;5115922;28;20201;-79
2023/06/05 02:21:05;;;;;;;4.47;2.70;;;10.80;99.90;;;;;;5116061;28;20255;-77
2023/06/05 02:23:32;;;;;;;6.30;3.13;;;10.90;99.90;;;;;;5115852;28;20224;-78
2023/06/05 02:25:59;;;;;;;4.73;2.80;;;10.80;99.90;;;;;;5115660;28;20212;-77
2023/06/05 02:28:26;;;;;;;5.87;3.07;;;10.90;99.90;;;;;;5115854;28;20222;-79
2023/06/05 02:30:55;;;;;;;3.80;2.70;;;10.80;99.90;;;;;;5112226;28;20607;-78
2023/06/05 02:33:21;;;;;;;3.97;2.80;;;10.70;99.90;;;;;;5115851;28;20213;-78
2023/06/05 02:35:48;;;;;;;3.90;2.77;;;10.70;99.90;;;;;;5115358;28;20205;-77
2023/06/05 02:38:15;;;;;;;4.47;2.80;;;10.70;99.90;;;;;;5115363;28;20203;-77
2023/06/05 02:40:42;;;;;;;4.57;3.00;;;10.60;99.90;;;;;;5115389;28;20229;-79
2023/06/05 02:43:11;;;;;;;3.73;2.90;;;10.60;99.90;;;;;;5115586;28;20589;-79
2023/06/05 02:45:38;;;;;;;6.77;2.90;;;10.50;99.90;;;;;;5114754;28;20644;-79
2023/06/05 02:48:06;;;;;;;6.10;3.13;;;10.60;99.90;;;;;;5115389;28;20205;-79
2023/06/05 02:50:33;;;;;;;4.93;2.93;;;10.40;99.90;;;;;;5114791;28;20208;-79
2023/06/05 02:53:00;;;;;;;5.37;2.97;;;10.30;99.90;;;;;;5114804;28;20228;-77
2023/06/05 02:55:29;;;;;;;5.17;3.10;;;10.20;99.90;;;;;;5114913;28;20211;-77
2023/06/05 02:57:57;;;;;;;4.93;2.90;;;10.30;99.90;;;;;;5115828;28;20197;-77
2023/06/05 03:00:25;;;;;;;3.60;2.70;;;10.40;99.90;;;;;;5115253;28;20703;-77
2023/06/05 03:02:52;;;;;;;5.93;3.17;;;10.40;99.90;;;;;;5115060;28;20319;-79
2023/06/05 03:05:24;;;;;;;4.63;2.73;;;10.50;99.90;;;;;;5115229;28;20201;-78
2023/06/05 03:07:52;;;;;;;3.73;2.80;;;10.40;99.90;;;;;;5114620;28;20192;-78
2023/06/05 03:10:20;;;;;;;4.43;2.93;;;10.30;99.90;;;;;;5114251;28;20208;-76
2023/06/05 03:12:46;;;;;;;4.90;3.37;;;10.30;99.90;;;;;;5113425;28;20220;-76
2023/06/05 03:15:14;;;;;;;5.27;2.73;;;10.30;99.90;;;;;;5114676;28;20209;-78
2023/06/05 03:17:42;;;;;;;5.03;3.10;;;10.20;99.90;;;;;;5115439;28;20201;-77
2023/06/05 03:20:10;;;;;;;5.40;3.00;;;10.10;99.90;;;;;;5114993;28;20244;-79
2023/06/05 03:22:38;;;;;;;4.20;3.07;;;10.20;99.90;;;;;;5114899;28;20591;-77
2023/06/05 03:25:06;;;;;;;9.07;2.97;;;10.40;99.90;;;;;;5121059;28;20200;-76
2023/06/05 03:27:33;;;;;;;5.73;3.20;;;10.30;99.90;;;;;;5122106;28;20688;-77
2023/06/05 03:29:59;;;;;;;4.90;2.80;;;10.40;99.90;;;;;;5121076;28;20201;-78
2023/06/05 03:32:26;;;;;;;6.23;3.33;;;10.20;99.90;;;;;;5121527;28;20654;-79
2023/06/05 03:34:53;;;;;;;5.67;4.60;;;10.20;99.90;;;;;;5120721;28;20200;-79
2023/06/05 03:37:20;;;;;;;3.77;2.83;;;10.20;99.90;;;;;;5120836;28;20203;-78
2023/06/05 03:39:48;;;;;;;6.20;3.30;;;10.20;99.90;;;;;;5120972;28;20200;-80
2023/06/05 03:42:14;;;;;;;4.47;3.37;;;10.10;99.90;;;;;;5120808;28;20223;-79
2023/06/05 03:44:41;;;;;;;6.83;3.17;;;10.30;99.90;;;;;;5120504;28;20222;-80
2023/06/05 03:47:08;;;;;;;6.70;3.47;;;10.30;99.90;;;;;;5121542;28;20200;-78
2023/06/05 03:49:35;;;;;;;5.67;3.23;;;10.40;99.90;;;;;;5120863;28;20666;-78
2023/06/05 03:52:03;;;;;;;5.97;3.40;;;10.30;99.90;;;;;;5120899;28;20208;-78
2023/06/05 03:54:32;;;;;;;6.97;3.10;;;10.30;99.90;;;;;;5120603;28;20308;-78
2023/06/05 03:57:02;;;;;;;4.93;3.23;;;10.40;99.90;;;;;;5120428;28;20216;-76
2023/06/05 03:59:29;;;;;;;6.17;3.70;;;10.40;99.90;;;;;;5120293;28;20216;-77
2023/06/05 04:01:57;;;;;;;5.83;3.57;;;10.50;99.90;;;;;;5120733;28;20289;-78
2023/06/05 04:04:23;;;;;;;6.47;3.50;;;10.70;99.90;;;;;;5120980;28;20228;-78
2023/06/05 04:06:51;;;;;;;7.93;3.23;;;10.70;99.90;;;;;;5121106;28;20197;-78
2023/06/05 04:09:17;;;;;;;6.33;3.67;;;10.90;99.90;;;;;;5120827;28;20200;-76
2023/06/05 04:11:45;;;;;;;4.37;3.23;;;11.40;99.90;;;;;;5121079;28;20196;-78
2023/06/05 04:14:13;;;;;;;6.60;3.40;;;11.60;99.90;;;;;;5121034;28;20573;-78
2023/06/05 04:16:42;;;;;;;6.10;3.47;;;11.90;99.90;;;;;;5120843;28;20197;-76
2023/06/05 04:19:10;;;;;;;6.60;3.63;;;12.40;99.90;;;;;;5120812;28;20264;-78
2023/06/05 04:21:38;;;;;;;7.47;3.63;;;12.90;99.90;;;;;;5120702;28;20213;-80
2023/06/05 04:24:07;;;;;;;5.13;3.17;;;13.30;99.90;;;;;;5120435;28;20212;-78
2023/06/05 04:26:34;;;;;;;4.37;3.43;;;12.90;99.90;;;;;;5120012;28;20206;-76
2023/06/05 04:29:02;;;;;;;4.47;3.40;;;12.50;99.90;;;;;;5120031;28;20215;-77
2023/06/05 04:31:32;;;;;;;5.00;3.53;;;11.90;99.90;;;;;;5120323;28;20228;-76
2023/06/05 04:33:59;;;;;;;8.40;3.70;;;11.50;99.90;;;;;;5119634;28;20823;-76
2023/06/05 04:36:28;;;;;;;7.07;3.83;;;11.40;99.90;;;;;;5115291;28;20203;-76
2023/06/05 04:38:55;;;;;;;7.17;4.00;;;11.00;99.90;;;;;;5116357;28;20193;-76
2023/06/05 04:41:22;;;;;;;5.83;3.83;;;11.40;99.90;;;;;;5117784;28;20225;-79
2023/06/05 04:43:49;;;;;;;5.67;3.60;;;11.70;99.90;;;;;;5117559;28;20231;-79
2023/06/05 04:46:16;;;;;;;6.03;3.30;;;11.50;99.90;;;;;;5117745;28;20295;-77
2023/06/05 04:48:45;;;;;;;5.60;3.47;;;11.30;99.90;;;;;;5117303;28;20224;-77
2023/06/05 04:51:12;;;;;;;5.63;4.00;;;11.40;99.90;;;;;;5117455;28;20213;-77
2023/06/05 04:53:41;;;;;;;6.30;3.53;;;11.50;99.90;;;;;;5116688;28;20228;-76
2023/06/05 04:56:09;;;;;;;6.23;3.67;;;11.50;99.90;;;;;;5117178;28;20212;-77
2023/06/05 04:58:39;;;;;;;6.10;3.43;;;11.60;99.90;;;;;;5116338;28;20260;-76
2023/06/05 05:01:06;;;;;;;8.53;3.73;;;11.60;99.90;;;;;;5116764;28;20213;-77
2023/06/05 05:03:33;;;;;;;6.10;3.70;;;11.70;99.90;;;;;;5117447;28;20311;-78
2023/06/05 05:06:02;;;;;;;5.70;4.10;;;11.50;99.90;;;;;;5117417;28;20201;-77
2023/06/05 05:08:28;;;;;;;8.90;3.90;;;11.50;99.90;;;;;;5117329;28;20631;-78
2023/06/05 05:10:55;;;;;;;7.03;4.43;;;11.80;99.90;;;;;;5116627;28;20205;-77
2023/06/05 05:13:22;;;;;;;8.30;4.40;;;12.10;99.90;;;;;;5115957;28;20243;-78
2023/06/05 05:15:52;;;;;;;8.67;3.97;;;12.10;99.90;;;;;;5116703;28;20688;-79
2023/06/05 05:18:19;;;;;;;6.17;4.13;;;12.50;99.90;;;;;;5116811;28;20669;-80
2023/06/05 05:20:46;;;;;;;7.40;4.10;;;12.40;99.90;;;;;;5116125;28;20208;-78
2023/06/05 05:23:15;;;;;;;6.63;4.40;;;12.50;99.90;;;;;;5115995;28;20216;-80
2023/06/05 05:25:41;;;;;;;8.10;4.77;;;12.50;99.90;;;;;;5115927;28;20773;-78
2023/06/05 05:28:09;;;;;;;6.47;4.10;;;12.80;99.90;;;;;;5116145;28;20536;-79
2023/06/05 05:30:36;;;;;;;7.80;4.60;;;13.20;99.90;;;;;;5116047;28;20607;-76
2023/06/05 05:33:03;;;;;;;8.83;4.80;;;13.40;99.90;;;;;;5116265;28;20219;-77
2023/06/05 05:35:30;;;;;;;8.10;4.03;;;13.40;99.90;;;;;;5116506;28;20291;-77
2023/06/05 05:37:57;;;;;;;9.43;4.77;;;13.50;99.90;;;;;;5115988;28;20204;-77
2023/06/05 05:40:25;;;;;;;8.80;4.73;;;13.30;99.90;;;;;;5115909;28;20205;-78
2023/06/05 05:42:52;;;;;;;7.97;4.70;;;14.10;99.90;;;;;;5115449;28;20225;-79
2023/06/05 05:45:19;;;;;;;6.20;4.63;;;14.40;99.90;;;;;;5115331;28;20720;-77
2023/06/05 05:47:46;;;;;;;8.37;4.83;;;14.40;99.90;;;;;;5115266;28;20648;-77
2023/06/05 05:50:12;;;;;;;7.07;4.10;;;14.40;99.90;;;;;;5115898;28;20301;-76
2023/06/05 05:52:39;;;;;;;10.73;5.23;;;15.60;99.90;;;;;;5114903;28;20221;-76
2023/06/05 05:55:09;;;;;;;7.47;4.77;;;14.30;99.90;;;;;;5115125;28;20299;-77
2023/06/05 05:57:37;;;;;;;9.02;4.60;;;14.10;99.90;;;;;;5114779;28;20201;-80
2023/06/05 06:00:08;;;;;;;9.18;4.65;;;13.70;99.90;;;;;;5114596;28;20571;-79
2023/06/05 06:02:36;;;;;;;8.52;4.47;;;13.50;99.90;;;;;;5114257;28;20584;-77
2023/06/05 06:05:04;;;;;;;8.07;5.10;;;14.00;99.90;;;;;;5114505;28;20204;-77
2023/06/05 06:07:31;;;;;;;7.57;4.53;;;13.50;99.90;;;;;;5115275;28;20258;-78
2023/06/05 06:09:58;;;;;;;8.23;5.03;;;13.70;99.90;;;;;;5116172;28;20204;-78
2023/06/05 06:12:25;;;;;;;10.43;5.13;;;13.70;99.90;;;;;;5115830;28;20197;-79
2023/06/05 06:14:53;;;;;;;7.80;5.07;;;14.30;99.90;;;;;;5114722;28;20224;-77
2023/06/05 06:17:20;;;;;;;8.20;5.20;;;14.50;99.90;;;;;;5114566;28;20227;-76
2023/06/05 06:19:48;;;;;;;9.37;5.03;;;14.40;99.90;;;;;;5115104;28;20201;-77
2023/06/05 06:22:15;;;;;;;7.27;4.93;;;14.40;99.90;;;;;;5114724;28;20260;-77
2023/06/05 06:24:42;;;;;;;8.17;4.60;;;14.40;99.90;;;;;;5114951;28;20254;-77
2023/06/05 06:27:10;;;;;;;9.97;5.30;;;14.20;99.90;;;;;;5114304;28;20215;-78
2023/06/05 06:29:38;;;;;;;11.18;4.95;;;14.00;99.90;;;;;;5114178;28;20561;-77
2023/06/05 06:32:07;;;;;;;8.17;5.30;;;14.50;99.90;;;;;;5114399;28;20553;-77
2023/06/05 06:34:34;;;;;;;9.10;5.23;;;14.70;99.90;;;;;;5115778;28;20308;-80
2023/06/05 06:37:01;;;;;;;8.27;4.90;;;14.80;99.90;;;;;;5116002;28;20215;-77
2023/06/05 06:39:28;;;;;;;10.97;5.17;;;14.70;99.90;;;;;;5116466;28;20197;-79
2023/06/05 06:41:57;;;;;;;7.30;4.70;;;14.80;99.90;;;;;;5115518;28;20243;-77
2023/06/05 06:44:24;;;;;;;7.17;4.57;;;15.00;99.90;;;;;;5108950;28;20220;-77
2023/06/05 06:46:50;;;;;;;9.52;4.95;;;14.80;99.90;;;;;;5115144;28;20204;-80
2023/06/05 06:49:18;;;;;;;6.72;4.38;;;14.70;99.90;;;;;;5114434;28;20569;-79
2023/06/05 06:51:45;;;;;;;9.90;4.73;;;14.80;99.90;;;;;;5114071;28;20216;-79
2023/06/05 06:54:12;;;;;;;9.93;4.72;;;15.00;99.90;;;;;;5114177;28;20217;-78
2023/06/05 06:56:39;;;;;;;10.80;5.10;;;15.20;99.90;;;;;;5113980;28;20204;-79
2023/06/05 06:59:13;;;;;;;7.57;4.68;;;15.30;99.90;;;;;;5114447;28;20207;-80
2023/06/05 07:01:43;;;;;;;10.93;5.05;;;15.20;99.90;;;;;;5114230;28;20703;-80
2023/06/05 07:04:11;;;;;;;7.60;5.00;;;15.20;99.90;;;;;;5114387;28;20716;-80
2023/06/05 07:06:39;;;;;;;7.78;4.65;;;15.10;99.90;;;;;;5114934;28;20211;-79
2023/06/05 07:09:06;;;;;;;9.75;4.22;;;15.10;99.90;;;;;;5114827;28;20197;-78
2023/06/05 07:11:33;;;;;;;10.98;4.63;;;15.20;99.90;;;;;;5115688;28;20213;-79
2023/06/05 07:14:00;;;;;;;8.18;4.70;;;15.30;99.90;;;;;;5114210;28;20225;-79
2023/06/05 07:16:27;;;;;;;10.47;4.90;;;15.30;99.90;;;;;;5115409;28;20208;-77
2023/06/05 07:18:55;;;;;;;11.27;4.88;;;15.30;99.90;;;;;;5115987;28;20197;-77
2023/06/05 07:21:22;;;;;;;7.78;4.68;;;15.50;99.90;;;;;;5095528;28;20657;-78
2023/06/05 07:23:51;;;;;;;8.75;5.22;;;15.50;99.90;;;;;;5095046;28;20221;-79
2023/06/05 07:26:18;;;;;;;8.57;5.07;;;15.50;99.90;;;;;;5111820;28;20226;-79
2023/06/05 07:28:46;;;;;;;9.07;4.95;;;15.60;99.90;;;;;;5115200;28;20914;-79
2023/06/05 07:31:14;;;;;;;8.35;4.70;;;15.70;99.90;;;;;;5115130;28;20281;-79
2023/06/05 07:33:41;;;;;;;7.75;4.40;;;15.80;99.90;;;;;;5114811;28;20224;-79
2023/06/05 07:36:10;;;;;;;7.78;4.53;;;15.90;99.90;;;;;;5115491;28;20254;-77
2023/06/05 07:38:38;;;;;;;6.70;4.50;;;16.00;99.90;;;;;;5115111;28;20208;-80
2023/06/05 07:41:06;;;;;;;10.95;5.18;;;16.00;99.90;;;;;;5114822;28;20222;-80
2023/06/05 07:43:33;;;;;;;7.97;4.60;;;16.00;99.90;;;;;;5114607;28;20592;-80
2023/06/05 07:46:00;;;;;;;7.95;4.88;;;16.00;99.90;;;;;;5115159;28;20204;-77
2023/06/05 07:48:27;;;;;;;10.20;5.05;;;16.00;99.90;;;;;;5114919;28;20201;-77
2023/06/05 07:50:53;;;;;;;9.52;4.82;;;16.10;99.90;;;;;;5115710;28;20204;-77
2023/06/05 07:53:22;;;;;;;8.05;5.20;;;16.40;99.90;;;;;;5115346;28;20720;-77
2023/06/05 07:55:50;;;;;;;8.25;5.22;;;16.40;99.90;;;;;;5115286;28;20234;-79
2023/06/05 07:58:18;;;;;;;20.50;6.05;;;16.50;99.90;;;;;;5113525;28;20219;-78
2023/06/05 08:00:47;;;;;;;10.95;5.18;;;16.60;99.90;;;;;;5115513;28;20668;-79
2023/06/05 08:03:19;;;;;;;10.63;4.82;;;16.60;99.90;;;;;;5115218;28;20277;-79
2023/06/05 08:05:47;;;;;;;12.02;5.50;;;16.60;99.90;;;;;;5115491;28;20688;-78
2023/06/05 08:08:13;;;;;;;11.68;4.75;;;16.70;99.90;;;;;;5114526;28;20197;-78
2023/06/05 08:10:40;;;;;;;9.98;5.40;;;16.80;99.90;;;;;;5118819;28;20236;-79
2023/06/05 08:13:08;;;;;;;8.93;4.90;;;17.00;99.90;;;;;;5120277;28;20624;-79
2023/06/05 08:15:36;;;;;;;6.93;4.70;;;17.10;99.90;;;;;;5119522;28;20315;-79
2023/06/05 08:18:04;;;;;;;13.00;4.95;;;17.30;99.90;;;;;;5119072;28;20200;-78
2023/06/05 08:20:30;;;;;;;8.68;4.53;;;17.10;99.90;;;;;;5119024;28;20212;-78
2023/06/05 08:22:58;;;;;;;10.93;5.00;;;17.20;99.90;;;;;;5119053;28;20228;-77
2023/06/05 08:25:24;;;;;;;12.07;5.22;;;17.30;99.90;;;;;;5119613;28;20269;-76
2023/06/05 08:27:51;;;;;;;12.65;5.07;;;17.50;99.90;;;;;;5119042;28;20197;-80
2023/06/05 08:30:18;;;;;;;17.92;5.05;;;17.50;99.90;;;;;;5118291;28;20213;-79
2023/06/05 08:32:46;;;;;;;12.15;4.70;;;17.40;99.90;;;;;;5118646;28;20723;-79
2023/06/05 08:35:13;;;;;;;7.70;3.92;;;17.80;99.90;;;;;;5118276;28;20205;-79
2023/06/05 08:37:40;;;;;;;10.93;4.05;;;17.50;99.90;;;;;;5118950;28;20567;-77
2023/06/05 08:40:10;;;;;;;10.25;4.13;;;17.70;99.90;;;;;;5119002;28;20208;-79
2023/06/05 08:42:38;;;;;;;8.23;4.20;;;17.90;99.90;;;;;;5118283;28;20277;-78
2023/06/05 08:45:07;;;;;;;12.10;4.65;;;18.00;99.90;;;;;;5118364;28;20209;-79
2023/06/05 08:47:37;;;;;;;8.68;3.40;;;18.20;99.90;;;;;;5118749;28;20296;-79
2023/06/05 08:50:08;;;;;;;9.68;3.67;;;18.60;99.90;;;;;;5119160;28;20205;-79
2023/06/05 08:52:35;;;;;;;7.43;4.00;;;18.80;99.90;;;;;;5118846;28;20224;-77
2023/06/05 08:55:04;;;;;;;10.27;4.32;;;19.00;99.90;;;;;;5117753;28;20671;-78
2023/06/05 08:57:31;;;;;;;7.15;3.50;;;19.50;99.90;;;;;;5117736;28;20699;-77
2023/06/05 09:00:00;;;;;;;8.93;3.70;;;19.60;99.90;;;;;;5118931;28;20216;-78
2023/06/05 09:02:27;;;;;;;6.03;3.40;;;19.90;99.90;;;;;;5118731;28;20600;-78
2023/06/05 09:04:53;;;;;;;3.92;3.13;;;19.80;99.90;;;;;;5118824;28;20577;-79
2023/06/05 09:07:21;;;;;;;6.78;3.17;;;20.10;99.90;;;;;;5118654;28;20600;-79
2023/06/05 09:09:48;;;;;;;4.00;2.72;;;20.80;99.90;;;;;;5118629;28;20568;-79
2023/06/05 09:12:15;;;;;;;4.25;3.33;;;21.10;99.90;;;;;;5118625;28;20547;-78
2023/06/05 09:14:42;;;;;;;4.28;2.83;;;20.90;99.90;;;;;;5116660;28;20204;-77
2023/06/05 09:17:14;;;;;;;4.85;2.78;;;20.70;1.00;;;;;;5118122;28;20589;-77
2023/06/05 09:19:42;;;;;;;5.65;3.17;;;20.90;1.00;;;;;;5118165;28;20219;-79
2023/06/05 09:22:10;;;;;;;4.30;2.83;;;21.40;1.00;;;;;;5117957;28;20189;-79
2023/06/05 09:24:40;;;;;;;6.65;2.90;;;21.30;1.00;;;;;;5119333;28;20201;-79
2023/06/05 09:27:09;;;;;;;3.95;2.83;;;21.40;1.00;;;;;;5118810;28;20255;-78
2023/06/05 09:29:38;;;;;;;3.80;3.20;;;21.60;1.00;;;;;;5118842;28;20197;-78
2023/06/05 09:32:06;;;;;;;6.70;2.90;;;21.80;99.90;;;;;;5118328;28;20204;-79
2023/06/05 09:34:34;;;;;;;3.55;3.25;;;21.80;45.00;;;;;;5118491;28;20229;-80
2023/06/05 09:37:02;;;;;;;3.30;2.60;;;21.90;1.00;;;;;;5117905;28;20786;-78
2023/06/05 09:39:30;;;;;;;3.65;2.60;;;22.00;99.90;;;;;;5118457;28;20211;-79
2023/06/05 09:41:59;;;;;;;5.32;2.85;;;22.00;1.00;;;;;;5117825;28;20209;-78
2023/06/05 09:44:27;;;;;;;5.28;2.47;;;21.90;1.00;;;;;;5113614;28;20222;-79
2023/06/05 09:46:58;;;;;;;8.48;2.83;;;22.30;1.00;;;;;;5115832;28;20565;-78
2023/06/05 09:49:27;;;;;;;4.47;2.38;;;22.50;99.90;;;;;;5118028;28;20672;-78
2023/06/05 09:51:56;;;;;;;5.15;2.88;;;22.40;99.90;;;;;;5117707;28;20204;-79
2023/06/05 09:54:25;;;;;;;6.20;2.65;;;22.60;1.00;;;;;;5117825;28;20228;-77
2023/06/05 09:56:59;;;;;;;2.40;2.20;;;22.50;99.90;;;;;;5118026;28;20200;-80
2023/06/05 09:59:31;;;;;;;6.10;2.42;;;22.40;99.90;;;;;;5118119;28;20204;-77
2023/06/05 10:02:00;;;;;;;4.47;2.85;;;22.80;99.90;;;;;;5118262;28;20204;-77
2023/06/05 10:04:29;;;;;;;4.03;2.85;;;22.90;1.00;;;;;;5118057;28;20235;-76
2023/06/05 10:07:01;;;;;;;4.45;3.10;;;22.80;1.00;;;;;;5118257;28;20291;-77
2023/06/05 10:09:31;;;;;;;3.65;2.50;;;22.90;99.90;;;;;;5117405;28;20207;-77
2023/06/05 10:12:00;;;;;;;3.63;2.30;;;22.90;99.90;;;;;;5118012;28;20201;-78
2023/06/05 10:14:27;;;;;;;5.40;2.50;;;22.60;1.00;;;;;;5117514;28;20250;-78
2023/06/05 10:16:55;;;;;;;5.28;2.30;;;22.80;99.90;;;;;;5117721;28;20201;-78
2023/06/05 10:19:24;;;;;;;3.55;2.47;;;23.10;1.00;;;;;;5117429;28;20291;-77
2023/06/05 10:21:51;;;;;;;2.97;2.20;;;23.20;99.90;;;;;;5117520;28;20657;-79
2023/06/05 10:24:21;;;;;;;3.05;2.33;;;23.20;1.00;;;;;;5117272;28;20247;-77
2023/06/05 10:27:25;;;;;;;3.40;2.22;;;23.40;1.00;;;;;;5117497;28;20200;-80
2023/06/05 10:30:27;;;;;;;4.72;2.22;;;23.70;1.00;;;;;;5117608;28;20206;-79
2023/06/05 10:33:09;;;;;;;5.20;2.60;;;23.80;1.00;;;;;;5117138;28;20657;-78
2023/06/05 10:35:47;;;;;;;4.63;2.40;;;23.70;1.00;;;;;;5116868;28;20200;-79
2023/06/05 10:38:18;;;;;;;3.25;2.50;;;23.40;99.90;;;;;;5117265;28;20196;-79
2023/06/05 10:40:46;;;;;;;4.40;2.10;;;23.80;99.90;;;;;;5116933;28;20212;-79
2023/06/05 10:43:47;;;;;;;3.88;2.10;;;23.40;99.90;;;;;;5117720;28;20224;-76
2023/06/05 10:46:30;;;;;;;4.13;1.88;;;24.10;41.60;;;;;;5102147;28;20649;-79
2023/06/05 10:49:08;;;;;;;2.80;1.95;;;24.00;99.90;;;;;;5116677;28;20208;-76
2023/06/05 10:51:39;;;;;;;2.47;1.90;;;23.90;1.00;;;;;;5116727;28;20208;-79
2023/06/05 10:54:06;;;;;;;3.35;2.10;;;24.00;1.00;;;;;;5115757;28;20232;-79
2023/06/05 10:57:01;;;;;;;5.00;1.90;;;23.70;1.00;;;;;;5110850;28;20552;-78
2023/06/05 10:59:30;;;;;;;3.70;1.92;;;23.90;1.00;;;;;;5116072;28;20661;-78
2023/06/05 11:02:27;;;;;;;2.10;1.90;;;24.00;1.00;;;;;;5116863;28;20283;-78
2023/06/05 11:05:13;;;;;;;1.92;1.83;;;23.90;99.90;;;;;;5088944;28;20221;-77
2023/06/05 11:07:41;;;;;;;4.50;2.13;;;23.80;99.90;;;;;;5110837;28;20207;-78
2023/06/05 11:10:10;;;;;;;3.15;2.17;;;24.00;99.90;;;;;;5116540;28;20263;-79
2023/06/05 11:13:04;;;;;;;7.05;2.22;;;24.10;93.00;;;;;;5116521;28;20234;-77
2023/06/05 11:15:46;;;;;;;3.55;2.00;;;24.30;1.00;;;;;;5117590;28;20234;-79
2023/06/05 11:18:28;;;;;;;3.30;2.10;;;23.90;1.00;;;;;;5117437;28;20200;-78
2023/06/05 11:20:56;;;;;;;3.75;2.10;;;24.50;1.00;;;;;;5113717;28;20568;-77
2023/06/05 11:23:27;;;;;;;3.20;2.20;;;24.00;1.00;;;;;;5115879;28;20228;-77
2023/06/05 11:25:56;;;;;;;3.30;2.40;;;23.90;1.00;;;;;;5115993;28;20720;-78
2023/06/05 11:28:40;;;;;;;3.38;2.40;;;24.20;1.00;;;;;;5116258;28;20207;-79
2023/06/05 11:31:08;;;;;;;4.70;2.30;;;24.30;1.00;;;;;;5117966;28;20647;-77
2023/06/05 11:33:35;;;;;;;3.97;2.22;;;24.50;1.00;;;;;;5117175;28;20288;-78
2023/06/05 11:36:05;;;;;;;3.78;2.42;;;24.50;99.90;;;;;;5117263;28;20630;-79
2023/06/05 11:38:32;;;;;;;3.05;2.03;;;24.50;99.90;;;;;;5117549;28;20240;-79
2023/06/05 11:40:59;;;;;;;5.78;2.72;;;24.20;99.90;;;;;;5117510;28;20688;-79
2023/06/05 11:43:26;;;;;;;2.53;2.33;;;24.50;99.90;;;;;;5117786;28;20584;-79
2023/06/05 11:45:54;;;;;;;5.88;2.47;;;24.60;70.10;;;;;;5120541;28;20201;-78
2023/06/05 11:48:24;;;;;;;5.82;2.50;;;24.70;1.00;;;;;;5121411;28;20618;-79
2023/06/05 11:50:57;;;;;;;3.38;2.33;;;24.50;1.00;;;;;;5121458;28;20189;-79
2023/06/05 11:53:25;;;;;;;2.40;2.20;;;25.00;1.00;;;;;;5121549;28;20238;-78
2023/06/05 11:56:05;;;;;;;2.92;2.63;;;24.80;1.00;;;;;;5120981;28;20197;-80
2023/06/05 11:58:36;;;;;;;2.55;2.20;;;25.10;1.00;;;;;;5121500;28;20280;-80
2023/06/05 12:01:09;;;;;;;2.35;2.15;;;24.80;1.00;;;;;;5121028;28;20190;-77
2023/06/05 12:03:39;;;;;;;2.60;1.90;;;24.20;1.00;;;;;;5121757;28;20283;-79
2023/06/05 12:06:06;;;;;;;3.58;3.05;;;24.30;1.00;;;;;;5121074;28;20246;-78
2023/06/05 12:08:35;;;;;;;2.47;2.28;;;24.50;1.00;;;;;;5122439;28;20208;-78
2023/06/05 12:11:02;;;;;;;5.00;2.70;;;24.60;1.00;;;;;;5121696;28;20224;-78
2023/06/05 12:13:51;;;;;;;4.75;2.45;;;24.20;1.00;;;;;;5120549;28;20227;-77
2023/06/05 12:16:19;;;;;;;3.05;2.25;;;24.60;1.00;;;;;;5121000;28;20661;-79
2023/06/05 12:18:49;;;;;;;2.13;1.90;;;24.60;1.00;;;;;;5120744;28;20197;-79
2023/06/05 12:21:23;;;;;;;2.92;2.42;;;24.50;99.90;;;;;;5121207;28;20249;-78
2023/06/05 12:23:50;;;;;;;2.30;2.05;;;24.20;99.90;;;;;;5120274;28;20235;-77
2023/06/05 12:26:18;;;;;;;2.88;2.50;;;24.50;99.90;;;;;;5120181;28;20209;-78
2023/06/05 12:28:46;;;;;;;7.60;2.50;;;24.80;99.90;;;;;;5120615;28;20205;-79
2023/06/05 12:31:34;;;;;;;5.65;2.17;;;24.70;99.90;;;;;;5120887;28;20201;-79
2023/06/05 12:34:03;;;;;;;2.67;2.30;;;24.60;99.90;;;;;;5120407;28;20221;-79
2023/06/05 12:36:31;;;;;;;3.75;2.30;;;24.20;99.90;;;;;;5120474;28;20208;-78
2023/06/05 12:39:05;;;;;;;4.00;2.15;;;24.50;99.90;;;;;;5119668;28;20239;-78
2023/06/05 12:41:32;;;;;;;7.95;2.40;;;24.60;99.90;;;;;;5120028;28;20211;-78
2023/06/05 12:44:04;;;;;;;4.97;2.38;;;24.30;99.90;;;;;;5120074;28;20231;-77
2023/06/05 12:46:31;;;;;;;4.03;2.40;;;24.80;99.90;;;;;;5120543;28;20660;-77
2023/06/05 12:48:58;;;;;;;4.65;2.50;;;25.00;99.90;;;;;;5121342;28;20300;-79
2023/06/05 12:51:27;;;;;;;2.92;2.20;;;24.80;99.90;;;;;;5117825;28;20205;-79
2023/06/05 12:53:54;;;;;;;7.30;2.78;;;24.80;99.90;;;;;;5119886;28;20221;-79
2023/06/05 12:56:24;;;;;;;2.53;2.25;;;25.40;21.80;;;;;;5117726;28;20254;-79